sensor_id;sensor_type;location;lat;lon;timestamp;pressure;altitude;pressure_sealevel;temperature;humidity
40490;BME280;26196;52.302;10.572;2023-03-22T00:02:35;100208.13;;;15.27;51.56
40490;BME280;26196;52.302;10.572;2023-03-22T00:06:35;100198.53;;;15.26;51.33
40490;BME280;26196;52.302;10.572;2023-03-22T00:10:36;100200.47;;;15.23;51.32
40490;BME280;26196;52.302;10.572;2023-03-22T00:14:37;100196.91;;;15.24;51.40
40490;BME280;26196;52.302;10.572;2023-03-22T00:18:38;100194.31;;;15.22;51.07
40490;BME280;26196;52.302;10.572;2023-03-22T00:22:38;100194.31;;;15.22;51.28
40490;BME280;26196;52.302;10.572;2023-03-22T00:26:39;100189.22;;;15.19;51.15
40490;BME280;26196;52.302;10.572;2023-03-22T00:30:39;100186.69;;;15.18;51.47
40490;BME280;26196;52.302;10.572;2023-03-22T00:34:39;100185.81;;;15.17;51.31
40490;BME280;26196;52.302;10.572;2023-03-22T00:38:40;100178.84;;;15.16;51.41
40490;BME280;26196;52.302;10.572;2023-03-22T00:42:40;100172.63;;;15.17;51.24
40490;BME280;26196;52.302;10.572;2023-03-22T00:46:41;100178.00;;;15.16;51.42
40490;BME280;26196;52.302;10.572;2023-03-22T00:50:41;100169.31;;;15.14;51.26
40490;BME280;26196;52.302;10.572;2023-03-22T00:54:41;100173.56;;;15.16;51.15
40490;BME280;26196;52.302;10.572;2023-03-22T00:58:42;100165.75;;;15.15;51.08
40490;BME280;26196;52.302;10.572;2023-03-22T01:02:43;100170.31;;;15.11;51.26
40490;BME280;26196;52.302;10.572;2023-03-22T01:06:43;100167.78;;;15.09;51.06
40490;BME280;26196;52.302;10.572;2023-03-22T01:10:43;100160.78;;;15.08;51.08
40490;BME280;26196;52.302;10.572;2023-03-22T01:14:45;100158.25;;;15.07;51.25
40490;BME280;26196;52.302;10.572;2023-03-22T01:18:45;100152.97;;;15.07;50.99
40490;BME280;26196;52.302;10.572;2023-03-22T01:22:46;100147.59;;;15.08;50.87
40490;BME280;26196;52.302;10.572;2023-03-22T01:26:46;100147.69;;;15.07;51.07
40490;BME280;26196;52.302;10.572;2023-03-22T01:30:47;100127.91;;;14.98;51.12
40490;BME280;26196;52.302;10.572;2023-03-22T01:34:47;100146.13;;;15.03;50.86
40490;BME280;26196;52.302;10.572;2023-03-22T01:38:48;100140.00;;;15.02;51.06
40490;BME280;26196;52.302;10.572;2023-03-22T01:42:48;100132.00;;;15.04;51.08
40490;BME280;26196;52.302;10.572;2023-03-22T01:46:49;100134.75;;;15.02;51.22
40490;BME280;26196;52.302;10.572;2023-03-22T01:50:57;100125.22;;;15.00;50.89
40490;BME280;26196;52.302;10.572;2023-03-22T01:55:03;100127.84;;;15.00;51.30
40490;BME280;26196;52.302;10.572;2023-03-22T01:59:06;100120.00;;;14.98;51.18
40490;BME280;26196;52.302;10.572;2023-03-22T02:03:12;100106.94;;;14.97;51.22
40490;BME280;26196;52.302;10.572;2023-03-22T02:07:15;100103.19;;;15.01;51.12
40490;BME280;26196;52.302;10.572;2023-03-22T02:11:17;100107.53;;;15.02;50.98
40490;BME280;26196;52.302;10.572;2023-03-22T02:15:24;100105.97;;;14.98;51.13
40490;BME280;26196;52.302;10.572;2023-03-22T02:28:30;100105.44;;;14.91;51.06
40490;BME280;26196;52.302;10.572;2023-03-22T02:32:48;100099.25;;;14.92;51.33
40490;BME280;26196;52.302;10.572;2023-03-22T02:41:45;100094.03;;;14.91;51.15
40490;BME280;26196;52.302;10.572;2023-03-22T02:45:54;100094.16;;;14.89;51.33
40490;BME280;26196;52.302;10.572;2023-03-22T02:50:04;100095.06;;;14.88;51.27
40490;BME280;26196;52.302;10.572;2023-03-22T02:58:20;100086.25;;;14.89;51.05
40490;BME280;26196;52.302;10.572;2023-03-22T03:02:23;100085.47;;;14.87;51.23
40490;BME280;26196;52.302;10.572;2023-03-22T03:06:28;100090.66;;;14.88;51.17
40490;BME280;26196;52.302;10.572;2023-03-22T03:10:31;100083.66;;;14.87;51.23
40490;BME280;26196;52.302;10.572;2023-03-22T03:14:32;100081.25;;;14.83;51.04
40490;BME280;26196;52.302;10.572;2023-03-22T03:23:32;100086.53;;;14.83;51.10
40490;BME280;26196;52.302;10.572;2023-03-22T03:27:45;100076.00;;;14.83;51.01
40490;BME280;26196;52.302;10.572;2023-03-22T03:32:01;100070.81;;;14.81;51.25
40490;BME280;26196;52.302;10.572;2023-03-22T03:36:09;100068.09;;;14.83;51.45
40490;BME280;26196;52.302;10.572;2023-03-22T03:40:14;100060.28;;;14.81;51.23
40490;BME280;26196;52.302;10.572;2023-03-22T03:44:16;100061.97;;;14.82;51.39
40490;BME280;26196;52.302;10.572;2023-03-22T03:48:21;100067.25;;;14.82;51.57
40490;BME280;26196;52.302;10.572;2023-03-22T03:52:22;100069.72;;;14.85;51.41
40490;BME280;26196;52.302;10.572;2023-03-22T03:56:23;100057.56;;;14.83;51.41
40490;BME280;26196;52.302;10.572;2023-03-22T04:00:23;100055.88;;;14.82;51.59
40490;BME280;26196;52.302;10.572;2023-03-22T04:04:26;100059.34;;;14.82;51.38
40490;BME280;26196;52.302;10.572;2023-03-22T04:08:26;100059.34;;;14.82;51.46
40490;BME280;26196;52.302;10.572;2023-03-22T04:12:27;100050.53;;;14.83;51.88
40490;BME280;26196;52.302;10.572;2023-03-22T04:16:27;100048.81;;;14.82;51.67
40490;BME280;26196;52.302;10.572;2023-03-22T04:20:28;100048.81;;;14.82;51.37
40490;BME280;26196;52.302;10.572;2023-03-22T04:24:29;100047.13;;;14.81;51.74
40490;BME280;26196;52.302;10.572;2023-03-22T04:28:29;100036.47;;;14.83;51.73
40490;BME280;26196;52.302;10.572;2023-03-22T04:32:32;100041.00;;;14.81;51.63
40490;BME280;26196;52.302;10.572;2023-03-22T04:36:35;100034.94;;;14.79;51.86
40490;BME280;26196;52.302;10.572;2023-03-22T04:40:38;100028.84;;;14.78;51.73
40490;BME280;26196;52.302;10.572;2023-03-22T04:44:45;100023.16;;;14.86;51.57
40490;BME280;26196;52.302;10.572;2023-03-22T04:48:45;100020.75;;;14.81;52.08
40490;BME280;26196;52.302;10.572;2023-03-22T04:52:46;100017.19;;;14.82;51.78
40490;BME280;26196;52.302;10.572;2023-03-22T04:56:47;100021.78;;;14.79;51.94
40490;BME280;26196;52.302;10.572;2023-03-22T05:00:48;100015.78;;;14.75;51.71
40490;BME280;26196;52.302;10.572;2023-03-22T05:04:49;100016.56;;;14.77;51.77
40490;BME280;26196;52.302;10.572;2023-03-22T05:08:50;100022.63;;;14.79;51.75
40490;BME280;26196;52.302;10.572;2023-03-22T05:12:50;100017.34;;;14.79;52.01
40490;BME280;26196;52.302;10.572;2023-03-22T05:16:50;100016.50;;;14.79;51.93
40490;BME280;26196;52.302;10.572;2023-03-22T05:20:52;100020.06;;;14.78;52.02
40490;BME280;26196;52.302;10.572;2023-03-22T05:24:53;100020.94;;;14.78;52.11
40490;BME280;26196;52.302;10.572;2023-03-22T05:28:54;100017.53;;;14.76;52.12
40490;BME280;26196;52.302;10.572;2023-03-22T05:32:57;100027.22;;;14.76;52.22
40490;BME280;26196;52.302;10.572;2023-03-22T05:36:58;100029.84;;;14.76;52.22
40490;BME280;26196;52.302;10.572;2023-03-22T05:40:59;100018.69;;;14.71;52.35
40490;BME280;26196;52.302;10.572;2023-03-22T05:45:00;100022.69;;;14.78;52.12
40490;BME280;26196;52.302;10.572;2023-03-22T05:49:00;100025.50;;;14.75;52.21
40490;BME280;26196;52.302;10.572;2023-03-22T05:53:00;100025.41;;;14.76;52.11
40490;BME280;26196;52.302;10.572;2023-03-22T05:57:02;100028.06;;;14.76;52.97
40490;BME280;26196;52.302;10.572;2023-03-22T06:01:05;100024.66;;;14.74;52.28
40490;BME280;26196;52.302;10.572;2023-03-22T06:05:06;100024.56;;;14.76;52.60
40490;BME280;26196;52.302;10.572;2023-03-22T06:09:07;100034.84;;;14.80;52.48
40490;BME280;26196;52.302;10.572;2023-03-22T06:13:07;100014.66;;;14.81;52.01
40490;BME280;26196;52.302;10.572;2023-03-22T06:17:08;100023.47;;;14.80;52.72
40490;BME280;26196;52.302;10.572;2023-03-22T06:21:08;100024.56;;;14.76;52.96
40490;BME280;26196;52.302;10.572;2023-03-22T06:25:09;100026.44;;;14.74;52.63
40490;BME280;26196;52.302;10.572;2023-03-22T06:29:10;100018.69;;;14.71;52.80
40490;BME280;26196;52.302;10.572;2023-03-22T06:33:10;100014.03;;;14.76;52.74
40490;BME280;26196;52.302;10.572;2023-03-22T06:37:11;100003.75;;;14.71;52.55
40490;BME280;26196;52.302;10.572;2023-03-22T06:41:11;100011.41;;;14.76;52.72
40490;BME280;26196;52.302;10.572;2023-03-22T06:45:12;100014.28;;;14.71;52.79
40490;BME280;26196;52.302;10.572;2023-03-22T06:49:15;100014.88;;;14.76;52.69
40490;BME280;26196;52.302;10.572;2023-03-22T06:53:18;100011.91;;;14.82;52.62
40490;BME280;26196;52.302;10.572;2023-03-22T06:57:18;100008.03;;;14.90;52.35
40490;BME280;26196;52.302;10.572;2023-03-22T07:01:19;100000.91;;;14.92;52.32
40490;BME280;26196;52.302;10.572;2023-03-22T07:05:20;99991.44;;;14.87;52.30
40490;BME280;26196;52.302;10.572;2023-03-22T07:09:21;99999.34;;;14.87;52.48
40490;BME280;26196;52.302;10.572;2023-03-22T07:13:24;99998.69;;;14.84;52.51
40490;BME280;26196;52.302;10.572;2023-03-22T07:17:24;100002.38;;;14.80;52.80
40490;BME280;26196;52.302;10.572;2023-03-22T07:21:25;99999.84;;;14.78;52.74
40490;BME280;26196;52.302;10.572;2023-03-22T07:25:25;99998.13;;;14.77;53.25
40490;BME280;26196;52.302;10.572;2023-03-22T07:29:26;99989.44;;;14.75;53.02
40490;BME280;26196;52.302;10.572;2023-03-22T07:33:26;99994.59;;;14.78;53.00
40490;BME280;26196;52.302;10.572;2023-03-22T07:37:27;99988.53;;;14.76;53.42
40490;BME280;26196;52.302;10.572;2023-03-22T07:41:27;99989.44;;;14.75;53.22
40490;BME280;26196;52.302;10.572;2023-03-22T07:45:29;99984.19;;;14.75;53.27
40490;BME280;26196;52.302;10.572;2023-03-22T07:49:29;99987.69;;;14.76;53.49
40490;BME280;26196;52.302;10.572;2023-03-22T07:53:30;99979.78;;;14.76;53.31
40490;BME280;26196;52.302;10.572;2023-03-22T07:57:30;99978.84;;;14.77;53.36
40490;BME280;26196;52.302;10.572;2023-03-22T08:01:31;99958.94;;;14.71;53.37
40490;BME280;26196;52.302;10.572;2023-03-22T08:05:31;99958.84;;;14.73;53.51
40490;BME280;26196;52.302;10.572;2023-03-22T08:09:32;99973.66;;;14.75;53.80
40490;BME280;26196;52.302;10.572;2023-03-22T08:13:32;99980.69;;;14.75;53.92
40490;BME280;26196;52.302;10.572;2023-03-22T08:17:33;99970.16;;;14.75;53.80
40490;BME280;26196;52.302;10.572;2023-03-22T08:21:34;99956.81;;;14.78;53.47
40490;BME280;26196;52.302;10.572;2023-03-22T08:25:34;99965.50;;;14.80;53.47
40490;BME280;26196;52.302;10.572;2023-03-22T08:29:36;99974.19;;;14.82;54.31
40490;BME280;26196;52.302;10.572;2023-03-22T08:33:36;99971.63;;;14.80;54.49
40490;BME280;26196;52.302;10.572;2023-03-22T08:37:37;99972.50;;;14.81;54.92
40490;BME280;26196;52.302;10.572;2023-03-22T08:41:39;99962.97;;;14.78;54.96
40490;BME280;26196;52.302;10.572;2023-03-22T08:45:39;99959.31;;;14.81;54.79
40490;BME280;26196;52.302;10.572;2023-03-22T08:49:40;99950.53;;;14.80;54.77
40490;BME280;26196;52.302;10.572;2023-03-22T08:53:40;99940.59;;;14.85;54.72
40490;BME280;26196;52.302;10.572;2023-03-22T08:57:41;99927.44;;;14.85;54.37
40490;BME280;26196;52.302;10.572;2023-03-22T09:01:43;99921.16;;;14.88;55.04
40490;BME280;26196;52.302;10.572;2023-03-22T09:05:44;99921.16;;;14.88;54.54
40490;BME280;26196;52.302;10.572;2023-03-22T09:09:45;99915.97;;;14.86;55.31
40490;BME280;26196;52.302;10.572;2023-03-22T09:13:46;99919.28;;;14.90;55.35
40490;BME280;26196;52.302;10.572;2023-03-22T09:17:47;99918.50;;;14.88;55.31
40490;BME280;26196;52.302;10.572;2023-03-22T09:21:47;99913.94;;;14.92;55.30
40490;BME280;26196;52.302;10.572;2023-03-22T09:25:49;99906.53;;;14.98;55.19
40490;BME280;26196;52.302;10.572;2023-03-22T09:29:50;99912.75;;;14.97;55.02
40490;BME280;26196;52.302;10.572;2023-03-22T09:33:51;99905.53;;;15.01;55.16
40490;BME280;26196;52.302;10.572;2023-03-22T09:37:52;99884.44;;;15.01;54.78
40490;BME280;26196;52.302;10.572;2023-03-22T09:41:59;99890.72;;;14.98;55.34
40490;BME280;26196;52.302;10.572;2023-03-22T09:46:03;99896.69;;;15.02;55.23
40490;BME280;26196;52.302;10.572;2023-03-22T09:50:09;99896.41;;;15.06;54.95
40490;BME280;26196;52.302;10.572;2023-03-22T09:54:13;99889.38;;;15.07;55.21
40490;BME280;26196;52.302;10.572;2023-03-22T09:58:37;99891.91;;;15.08;55.39
40490;BME280;26196;52.302;10.572;2023-03-22T10:06:49;99879.69;;;15.07;55.56
40490;BME280;26196;52.302;10.572;2023-03-22T10:10:53;99868.38;;;15.05;56.06
40490;BME280;26196;52.302;10.572;2023-03-22T10:15:12;99870.84;;;15.08;55.57
40490;BME280;26196;52.302;10.572;2023-03-22T10:19:23;99864.66;;;15.09;55.68
40490;BME280;26196;52.302;10.572;2023-03-22T10:23:33;99866.16;;;15.14;55.53
40490;BME280;26196;52.302;10.572;2023-03-22T10:27:36;99866.81;;;15.17;55.39
40490;BME280;26196;52.302;10.572;2023-03-22T10:31:38;99872.97;;;15.18;55.23
40490;BME280;26196;52.302;10.572;2023-03-22T10:35:42;99874.72;;;15.17;55.64
40490;BME280;26196;52.302;10.572;2023-03-22T10:39:46;99870.22;;;15.19;55.06
40490;BME280;26196;52.302;10.572;2023-03-22T10:43:51;99861.28;;;15.22;55.01
40490;BME280;26196;52.302;10.572;2023-03-22T10:47:56;99864.03;;;15.20;55.53
40490;BME280;26196;52.302;10.572;2023-03-22T10:52:03;99846.84;;;15.13;55.51
40490;BME280;26196;52.302;10.572;2023-03-22T10:56:13;99863.69;;;15.26;55.12
40490;BME280;26196;52.302;10.572;2023-03-22T11:00:15;99858.47;;;15.25;55.02
40490;BME280;26196;52.302;10.572;2023-03-22T11:04:16;99860.97;;;15.28;55.00
40490;BME280;26196;52.302;10.572;2023-03-22T11:08:16;99851.78;;;15.19;55.35
40490;BME280;26196;52.302;10.572;2023-03-22T11:12:17;99865.22;;;15.30;54.85
40490;BME280;26196;52.302;10.572;2023-03-22T11:16:17;99854.56;;;15.32;55.03
40490;BME280;26196;52.302;10.572;2023-03-22T11:20:19;99859.75;;;15.34;55.15
40490;BME280;26196;52.302;10.572;2023-03-22T11:24:20;99855.50;;;15.31;55.31
40490;BME280;26196;52.302;10.572;2023-03-22T11:28:46;99859.75;;;15.34;55.13
40490;BME280;26196;52.302;10.572;2023-03-22T11:32:47;99850.72;;;15.38;54.90
40490;BME280;26196;52.302;10.572;2023-03-22T11:36:48;99844.59;;;15.37;55.01
40490;BME280;26196;52.302;10.572;2023-03-22T11:40:59;99838.28;;;15.40;54.96
40490;BME280;26196;52.302;10.572;2023-03-22T11:45:00;99832.25;;;15.38;54.98
40490;BME280;26196;52.302;10.572;2023-03-22T11:49:05;99820.78;;;15.39;54.84
40490;BME280;26196;52.302;10.572;2023-03-22T11:53:11;99809.09;;;15.43;55.12
40490;BME280;26196;52.302;10.572;2023-03-22T11:57:15;99811.75;;;15.43;54.94
40490;BME280;26196;52.302;10.572;2023-03-22T12:01:37;99817.72;;;15.46;55.04
40490;BME280;26196;52.302;10.572;2023-03-22T12:05:43;99824.66;;;15.47;54.60
40490;BME280;26196;52.302;10.572;2023-03-22T12:09:50;99816.84;;;15.46;55.12
40490;BME280;26196;52.302;10.572;2023-03-22T12:13:56;99809.03;;;15.44;55.29
40490;BME280;26196;52.302;10.572;2023-03-22T12:18:03;99822.09;;;15.46;55.06
40490;BME280;26196;52.302;10.572;2023-03-22T12:22:10;99824.59;;;15.49;54.43
40490;BME280;26196;52.302;10.572;2023-03-22T12:26:19;99820.16;;;15.49;55.13
40490;BME280;26196;52.302;10.572;2023-03-22T12:30:30;99819.13;;;15.52;54.28
40490;BME280;26196;52.302;10.572;2023-03-22T12:34:37;99826.84;;;15.55;54.36
40490;BME280;26196;52.302;10.572;2023-03-22T12:47:33;99827.50;;;15.59;54.65
40490;BME280;26196;52.302;10.572;2023-03-22T12:51:37;99821.22;;;15.61;54.57
40490;BME280;26196;52.302;10.572;2023-03-22T12:55:39;99804.53;;;15.61;53.94
40490;BME280;26196;52.302;10.572;2023-03-22T12:59:43;99802.66;;;15.63;54.61
40490;BME280;26196;52.302;10.572;2023-03-22T13:03:47;99803.44;;;15.65;54.38
40490;BME280;26196;52.302;10.572;2023-03-22T13:07:52;99798.16;;;15.65;54.86
40490;BME280;26196;52.302;10.572;2023-03-22T13:16:18;99791.84;;;15.67;54.65
40490;BME280;26196;52.302;10.572;2023-03-22T13:20:24;99789.22;;;15.67;54.63
40490;BME280;26196;52.302;10.572;2023-03-22T13:24:27;99787.41;;;15.68;54.61
40490;BME280;26196;52.302;10.572;2023-03-22T13:28:27;99781.97;;;15.71;54.82
40490;BME280;26196;52.302;10.572;2023-03-22T13:32:30;99785.38;;;15.73;54.54
40490;BME280;26196;52.302;10.572;2023-03-22T13:36:32;99770.50;;;15.72;54.41
40490;BME280;26196;52.302;10.572;2023-03-22T13:40:48;99775.59;;;15.75;54.46
40490;BME280;26196;52.302;10.572;2023-03-22T13:44:54;99771.16;;;15.75;54.57
40490;BME280;26196;52.302;10.572;2023-03-22T13:53:04;99771.16;;;15.75;54.50
40490;BME280;26196;52.302;10.572;2023-03-22T13:57:15;99775.41;;;15.78;53.74
40490;BME280;26196;52.302;10.572;2023-03-22T14:01:26;99770.00;;;15.80;54.54
40490;BME280;26196;52.302;10.572;2023-03-22T14:05:30;99762.22;;;15.78;54.43
40490;BME280;26196;52.302;10.572;2023-03-22T14:09:42;99766.47;;;15.81;54.27
40490;BME280;26196;52.302;10.572;2023-03-22T14:13:48;99762.22;;;15.78;54.17
40490;BME280;26196;52.302;10.572;2023-03-22T14:18:17;99764.66;;;15.81;54.16
40490;BME280;26196;52.302;10.572;2023-03-22T14:22:36;99767.22;;;15.83;53.94
40490;BME280;26196;52.302;10.572;2023-03-22T14:26:42;99777.78;;;15.83;53.77
40490;BME280;26196;52.302;10.572;2023-03-22T14:30:43;99774.09;;;15.85;54.12
40490;BME280;26196;52.302;10.572;2023-03-22T14:34:50;99769.75;;;15.84;53.61
40490;BME280;26196;52.302;10.572;2023-03-22T14:38:51;99773.16;;;15.86;54.08
40490;BME280;26196;52.302;10.572;2023-03-22T14:42:52;99785.38;;;15.87;54.02
40490;BME280;26196;52.302;10.572;2023-03-22T14:47:00;99783.69;;;15.86;54.05
40490;BME280;26196;52.302;10.572;2023-03-22T14:51:13;99781.81;;;15.88;53.47
40490;BME280;26196;52.302;10.572;2023-03-22T14:55:21;99777.38;;;15.89;54.04
40490;BME280;26196;52.302;10.572;2023-03-22T14:59:24;99784.47;;;15.88;54.16
40490;BME280;26196;52.302;10.572;2023-03-22T15:03:28;99781.72;;;15.90;52.53
40490;BME280;26196;52.302;10.572;2023-03-22T15:07:43;99788.72;;;15.91;53.98
40490;BME280;26196;52.302;10.572;2023-03-22T15:11:43;99779.00;;;15.91;53.55
40490;BME280;26196;52.302;10.572;2023-03-22T15:15:44;99778.03;;;15.92;53.63
40490;BME280;26196;52.302;10.572;2023-03-22T15:19:49;99771.84;;;15.93;53.63
40490;BME280;26196;52.302;10.572;2023-03-22T15:23:51;99762.13;;;15.94;53.44
40490;BME280;26196;52.302;10.572;2023-03-22T15:27:52;99759.47;;;15.94;53.26
40490;BME280;26196;52.302;10.572;2023-03-22T15:31:54;99770.03;;;15.94;53.88
40490;BME280;26196;52.302;10.572;2023-03-22T15:35:55;99782.28;;;15.95;53.64
40490;BME280;26196;52.302;10.572;2023-03-22T15:39:57;99766.38;;;15.96;53.60
40490;BME280;26196;52.302;10.572;2023-03-22T15:48:18;99767.00;;;16.00;53.39
40490;BME280;26196;52.302;10.572;2023-03-22T15:52:21;99774.00;;;16.01;52.73
40490;BME280;26196;52.302;10.572;2023-03-22T15:56:27;99765.97;;;16.03;53.05
40490;BME280;26196;52.302;10.572;2023-03-22T16:00:37;99762.56;;;16.01;53.58
40490;BME280;26196;52.302;10.572;2023-03-22T16:04:38;99759.00;;;16.02;53.73
40490;BME280;26196;52.302;10.572;2023-03-22T16:08:38;99762.69;;;15.99;53.39
40490;BME280;26196;52.302;10.572;2023-03-22T16:12:39;99759.84;;;16.02;53.62
40490;BME280;26196;52.302;10.572;2023-03-22T16:16:39;99749.38;;;16.01;53.74
40490;BME280;26196;52.302;10.572;2023-03-22T16:20:40;99765.22;;;16.01;53.46
40490;BME280;26196;52.302;10.572;2023-03-22T16:24:41;99766.16;;;16.00;53.69
40490;BME280;26196;52.302;10.572;2023-03-22T16:28:43;99757.28;;;16.01;53.48
40490;BME280;26196;52.302;10.572;2023-03-22T16:32:45;99758.72;;;16.06;53.28
40490;BME280;26196;52.302;10.572;2023-03-22T16:36:46;99760.50;;;16.06;53.19
40490;BME280;26196;52.302;10.572;2023-03-22T16:40:50;99754.19;;;16.08;53.41
40490;BME280;26196;52.302;10.572;2023-03-22T16:44:52;99748.81;;;16.10;53.30
40490;BME280;26196;52.302;10.572;2023-03-22T16:48:53;99758.53;;;16.09;53.07
40490;BME280;26196;52.302;10.572;2023-03-22T16:52:53;99753.25;;;16.09;53.23
40490;BME280;26196;52.302;10.572;2023-03-22T16:56:54;99763.63;;;16.12;53.18
40490;BME280;26196;52.302;10.572;2023-03-22T17:00:54;99758.53;;;16.09;53.24
40490;BME280;26196;52.302;10.572;2023-03-22T17:04:55;99759.47;;;16.08;53.26
40490;BME280;26196;52.302;10.572;2023-03-22T17:08:55;99763.81;;;16.09;53.19
40490;BME280;26196;52.302;10.572;2023-03-22T17:12:56;99769.09;;;16.09;53.23
40490;BME280;26196;52.302;10.572;2023-03-22T17:16:57;99765.50;;;16.10;53.08
40490;BME280;26196;52.302;10.572;2023-03-22T17:20:57;99766.34;;;16.11;53.05
40490;BME280;26196;52.302;10.572;2023-03-22T17:24:57;99769.00;;;16.11;53.40
40490;BME280;26196;52.302;10.572;2023-03-22T17:28:59;99758.34;;;16.12;53.03
40490;BME280;26196;52.302;10.572;2023-03-22T17:33:00;99770.59;;;16.13;53.08
40490;BME280;26196;52.302;10.572;2023-03-22T17:37:00;99768.81;;;16.14;53.01
40490;BME280;26196;52.302;10.572;2023-03-22T17:41:01;99760.91;;;16.14;53.25
40490;BME280;26196;52.302;10.572;2023-03-22T17:45:01;99769.56;;;16.16;53.19
40490;BME280;26196;52.302;10.572;2023-03-22T17:49:02;99777.47;;;16.16;52.73
40490;BME280;26196;52.302;10.572;2023-03-22T17:53:05;99782.03;;;16.14;52.39
40490;BME280;26196;52.302;10.572;2023-03-22T17:57:05;99776.44;;;16.18;53.03
40490;BME280;26196;52.302;10.572;2023-03-22T18:01:08;99772.19;;;16.16;53.32
40490;BME280;26196;52.302;10.572;2023-03-22T18:05:10;99785.50;;;16.14;53.14
40490;BME280;26196;52.302;10.572;2023-03-22T18:09:10;99797.47;;;16.20;53.12
40490;BME280;26196;52.302;10.572;2023-03-22T18:13:11;99788.91;;;16.16;53.25
40490;BME280;26196;52.302;10.572;2023-03-22T18:17:11;99785.97;;;16.07;53.47
40490;BME280;26196;52.302;10.572;2023-03-22T18:21:12;99802.28;;;16.13;53.04
40490;BME280;26196;52.302;10.572;2023-03-22T18:25:15;99796.81;;;16.16;53.42
40490;BME280;26196;52.302;10.572;2023-03-22T18:29:15;99801.16;;;16.17;53.19
40490;BME280;26196;52.302;10.572;2023-03-22T18:33:16;99793.44;;;16.14;53.18
40490;BME280;26196;52.302;10.572;2023-03-22T18:37:16;99792.38;;;16.17;52.95
40490;BME280;26196;52.302;10.572;2023-03-22T18:41:18;99787.94;;;16.17;53.41
40490;BME280;26196;52.302;10.572;2023-03-22T18:45:18;99784.34;;;16.18;53.26
40490;BME280;26196;52.302;10.572;2023-03-22T18:49:20;99784.34;;;16.18;53.23
40490;BME280;26196;52.302;10.572;2023-03-22T18:53:20;99787.75;;;16.21;52.79
40490;BME280;26196;52.302;10.572;2023-03-22T18:57:21;99787.75;;;16.21;52.84
40490;BME280;26196;52.302;10.572;2023-03-22T19:01:21;99782.47;;;16.21;53.11
40490;BME280;26196;52.302;10.572;2023-03-22T19:05:22;99773.63;;;16.22;52.99
40490;BME280;26196;52.302;10.572;2023-03-22T19:09:23;99771.72;;;16.24;52.95
40490;BME280;26196;52.302;10.572;2023-03-22T19:13:24;99757.66;;;16.23;52.63
40490;BME280;26196;52.302;10.572;2023-03-22T19:17:24;99759.28;;;16.26;52.64
40490;BME280;26196;52.302;10.572;2023-03-22T19:21:25;99738.53;;;16.19;53.02
40490;BME280;26196;52.302;10.572;2023-03-22T19:25:25;99744.66;;;16.20;52.51
40490;BME280;26196;52.302;10.572;2023-03-22T19:29:26;99747.22;;;16.22;52.88
40490;BME280;26196;52.302;10.572;2023-03-22T19:33:27;99740.34;;;16.19;52.67
40490;BME280;26196;52.302;10.572;2023-03-22T19:37:28;99742.22;;;16.17;52.84
40490;BME280;26196;52.302;10.572;2023-03-22T19:41:29;99750.03;;;16.18;52.69
40490;BME280;26196;52.302;10.572;2023-03-22T19:45:29;99746.53;;;16.18;52.78
40490;BME280;26196;52.302;10.572;2023-03-22T19:49:29;99749.31;;;16.16;52.73
40490;BME280;26196;52.302;10.572;2023-03-22T19:53:32;99759.88;;;16.16;52.56
40490;BME280;26196;52.302;10.572;2023-03-22T19:57:33;99771.25;;;16.17;52.61
40490;BME280;26196;52.302;10.572;2023-03-22T20:01:34;99750.22;;;16.15;52.46
40490;BME280;26196;52.302;10.572;2023-03-22T20:05:35;99759.00;;;16.16;52.23
40490;BME280;26196;52.302;10.572;2023-03-22T20:09:36;99749.47;;;16.13;52.34
40490;BME280;26196;52.302;10.572;2023-03-22T20:13:41;99745.22;;;16.11;52.36
40490;BME280;26196;52.302;10.572;2023-03-22T20:17:42;99727.50;;;16.13;52.16
40490;BME280;26196;52.302;10.572;2023-03-22T20:21:42;99729.31;;;16.12;52.46
40490;BME280;26196;52.302;10.572;2023-03-22T20:25:54;99704.59;;;16.13;52.25
40490;BME280;26196;52.302;10.572;2023-03-22T20:29:55;99707.53;;;16.09;52.06
40490;BME280;26196;52.302;10.572;2023-03-22T20:33:57;99703.75;;;16.13;52.30
40490;BME280;26196;52.302;10.572;2023-03-22T20:37:57;99705.53;;;16.12;52.03
40490;BME280;26196;52.302;10.572;2023-03-22T20:41:57;99694.97;;;16.12;52.11
40490;BME280;26196;52.302;10.572;2023-03-22T20:45:58;99700.25;;;16.12;52.19
40490;BME280;26196;52.302;10.572;2023-03-22T20:49:58;99687.06;;;16.12;51.86
40490;BME280;26196;52.302;10.572;2023-03-22T20:53:59;99681.03;;;16.10;51.83
40490;BME280;26196;52.302;10.572;2023-03-22T20:57:59;99670.47;;;16.10;51.87
40490;BME280;26196;52.302;10.572;2023-03-22T21:01:59;99674.72;;;16.13;51.83
40490;BME280;26196;52.302;10.572;2023-03-22T21:06:08;99675.75;;;16.10;51.58
40490;BME280;26196;52.302;10.572;2023-03-22T21:10:10;99678.59;;;16.07;51.69
40490;BME280;26196;52.302;10.572;2023-03-22T21:14:11;99675.19;;;16.05;51.59
40490;BME280;26196;52.302;10.572;2023-03-22T21:18:11;99676.78;;;16.08;51.56
40490;BME280;26196;52.302;10.572;2023-03-22T21:22:18;99682.06;;;16.08;51.74
40490;BME280;26196;52.302;10.572;2023-03-22T21:26:20;99686.59;;;16.06;51.91
40490;BME280;26196;52.302;10.572;2023-03-22T21:30:20;99682.34;;;16.03;51.41
40490;BME280;26196;52.302;10.572;2023-03-22T21:34:21;99667.06;;;16.08;51.46
40490;BME280;26196;52.302;10.572;2023-03-22T21:38:22;99657.38;;;16.09;51.45
40490;BME280;26196;52.302;10.572;2023-03-22T21:42:24;99664.63;;;16.05;51.11
40490;BME280;26196;52.302;10.572;2023-03-22T21:46:28;99654.34;;;16.01;50.88
40490;BME280;26196;52.302;10.572;2023-03-22T21:50:36;99649.94;;;16.01;51.12
40490;BME280;26196;52.302;10.572;2023-03-22T21:54:37;99657.13;;;15.99;51.59